Time;durP1;ratioP1;P1;durP2;ratioP2;P2;SDS_P1;SDS_P2;PMS_P1;PMS_P2;Temp;Humidity;BMP_temperature;BMP_pressure;BME280_temperature;BME280_humidity;BME280_pressure;Samples;Min_cycle;Max_cycle;Signal;HPM_P1;HPM_P2
2022/08/25 00:01:21;;;;;;;2.28;2.08;;;22.30;59.10;;;;;;6160657;23;20139;-86
2022/08/25 00:03:47;;;;;;;2.03;1.90;;;22.30;59.30;;;;;;6136121;23;20229;-86
2022/08/25 00:06:14;;;;;;;2.35;2.15;;;22.30;59.30;;;;;;6136293;23;20185;-87
2022/08/25 00:08:40;;;;;;;2.20;2.00;;;22.30;59.20;;;;;;6160417;23;20170;-86
2022/08/25 00:11:07;;;;;;;2.15;1.98;;;22.30;59.30;;;;;;6136352;23;20582;-87
2022/08/25 00:13:33;;;;;;;2.20;2.00;;;22.30;59.20;;;;;;6160447;23;20123;-86
2022/08/25 00:15:58;;;;;;;2.20;2.00;;;22.30;59.20;;;;;;6160550;23;20225;-86
2022/08/25 00:18:24;;;;;;;2.45;1.92;;;22.30;59.10;;;;;;6135568;23;20135;-87
2022/08/25 00:20:50;;;;;;;2.00;1.90;;;22.30;59.10;;;;;;6160450;23;20605;-87
2022/08/25 00:23:16;;;;;;;2.85;2.25;;;22.30;59.30;;;;;;6136125;23;20514;-86
2022/08/25 00:25:42;;;;;;;2.10;1.95;;;22.30;59.20;;;;;;6136754;23;20181;-86
2022/08/25 00:28:09;;;;;;;1.95;1.80;;;22.20;59.10;;;;;;6135795;23;20174;-86
2022/08/25 00:30:35;;;;;;;3.60;1.77;;;22.30;59.10;;;;;;6160648;23;20161;-87
2022/08/25 00:33:02;;;;;;;2.10;1.92;;;22.30;59.40;;;;;;6160479;23;20558;-86
2022/08/25 00:35:28;;;;;;;2.30;2.00;;;22.30;59.10;;;;;;6135936;23;20146;-86
2022/08/25 00:37:55;;;;;;;2.22;2.03;;;22.30;59.30;;;;;;6160368;23;20169;-87
2022/08/25 00:40:23;;;;;;;2.65;1.90;;;22.30;59.30;;;;;;6062327;23;20162;-86
2022/08/25 00:42:50;;;;;;;2.25;2.05;;;22.30;59.30;;;;;;6086037;23;20158;-86
2022/08/25 00:45:17;;;;;;;1.95;1.85;;;22.30;59.20;;;;;;6062363;23;20159;-86
2022/08/25 00:47:44;;;;;;;2.25;2.05;;;22.30;59.20;;;;;;6085961;23;20622;-86
2022/08/25 00:50:12;;;;;;;2.00;1.90;;;22.30;59.30;;;;;;6086320;23;20147;-86
2022/08/25 00:52:41;;;;;;;2.22;2.03;;;22.30;59.40;;;;;;6085964;23;20155;-86
2022/08/25 00:55:13;;;;;;;2.17;1.98;;;22.30;59.30;;;;;;6086255;23;20198;-86
2022/08/25 00:57:42;;;;;;;1.85;1.75;;;22.30;59.20;;;;;;6088091;23;20154;-86
2022/08/25 01:00:16;;;;;;;2.20;2.00;;;22.30;59.20;;;;;;6086573;23;20158;-86
2022/08/25 01:02:42;;;;;;;1.85;1.75;;;22.30;59.30;;;;;;6159982;23;20134;-86
2022/08/25 01:05:08;;;;;;;2.00;1.80;;;22.20;59.10;;;;;;6160222;23;20131;-87
2022/08/25 01:07:34;;;;;;;2.20;2.00;;;22.30;59.30;;;;;;6160031;23;20648;-86
2022/08/25 01:09:59;;;;;;;2.10;1.92;;;22.30;59.30;;;;;;6135814;23;20154;-86
2022/08/25 01:12:27;;;;;;;2.30;2.10;;;22.30;59.30;;;;;;6160319;23;20157;-86
2022/08/25 01:14:54;;;;;;;1.95;1.83;;;22.20;59.40;;;;;;6110194;23;20151;-87
2022/08/25 01:17:21;;;;;;;1.92;1.80;;;22.30;59.30;;;;;;6109899;23;20162;-86
2022/08/25 01:19:47;;;;;;;2.45;1.98;;;22.20;59.10;;;;;;6085955;23;20212;-86
2022/08/25 01:22:15;;;;;;;1.98;1.88;;;22.30;59.40;;;;;;6159798;23;20606;-86
2022/08/25 01:24:52;;;;;;;2.10;1.90;;;22.30;59.20;;;;;;6087007;23;20154;-86
2022/08/25 01:27:19;;;;;;;2.13;1.88;;;22.20;59.30;;;;;;6112063;23;20174;-87
2022/08/25 01:29:46;;;;;;;1.98;1.88;;;22.30;59.30;;;;;;6110310;23;20151;-86
2022/08/25 01:32:13;;;;;;;2.40;2.20;;;22.30;59.30;;;;;;6086055;23;20155;-86
2022/08/25 01:34:40;;;;;;;1.98;1.80;;;22.20;59.30;;;;;;6159814;23;20138;-86
2022/08/25 01:37:07;;;;;;;2.05;1.92;;;22.20;59.30;;;;;;6159906;23;20214;-87
2022/08/25 01:39:35;;;;;;;2.88;2.00;;;22.20;59.30;;;;;;6159595;23;20138;-87
2022/08/25 01:42:15;;;;;;;1.98;1.88;;;22.20;59.20;;;;;;6136140;23;20226;-86
2022/08/25 01:44:43;;;;;;;1.85;1.75;;;22.20;59.30;;;;;;6160334;23;20508;-86
2022/08/25 01:47:09;;;;;;;2.80;2.05;;;22.20;59.30;;;;;;6135544;23;20153;-86
2022/08/25 01:49:35;;;;;;;1.95;1.75;;;22.20;59.30;;;;;;6135162;23;20602;-86
2022/08/25 01:52:10;;;;;;;2.15;1.95;;;22.20;59.30;;;;;;6134833;23;20197;-87
2022/08/25 01:54:35;;;;;;;2.17;1.98;;;22.30;59.40;;;;;;6120417;23;20569;-87
2022/08/25 01:57:01;;;;;;;1.88;1.77;;;22.20;59.40;;;;;;6129758;23;20222;-86
2022/08/25 01:59:29;;;;;;;2.03;1.83;;;22.20;59.30;;;;;;6130268;23;20147;-87
2022/08/25 02:01:56;;;;;;;1.77;1.67;;;22.20;59.30;;;;;;6129008;23;20156;-86
2022/08/25 02:04:24;;;;;;;1.98;1.80;;;22.30;59.40;;;;;;6081216;23;20177;-87
2022/08/25 02:06:51;;;;;;;2.03;1.85;;;22.30;59.40;;;;;;6080677;23;20163;-86
2022/08/25 02:09:17;;;;;;;1.98;1.88;;;22.20;59.40;;;;;;6128872;23;20215;-87
2022/08/25 02:11:45;;;;;;;2.10;1.90;;;22.20;59.40;;;;;;6106283;23;20479;-87
2022/08/25 02:14:12;;;;;;;1.98;1.77;;;22.30;59.40;;;;;;6104597;23;20551;-87
2022/08/25 02:16:39;;;;;;;1.98;1.88;;;22.20;59.40;;;;;;6105445;23;20225;-86
2022/08/25 02:19:07;;;;;;;2.00;1.80;;;22.20;59.40;;;;;;6129847;23;20226;-86
2022/08/25 02:21:34;;;;;;;2.25;2.08;;;22.20;59.40;;;;;;6104533;23;20582;-87
2022/08/25 02:24:00;;;;;;;2.15;1.95;;;22.10;59.30;;;;;;6105628;23;20167;-87
2022/08/25 02:26:26;;;;;;;1.95;1.75;;;22.20;59.50;;;;;;6129914;23;20124;-87
2022/08/25 02:28:52;;;;;;;1.98;1.88;;;22.20;59.40;;;;;;6129810;23;20167;-86
2022/08/25 02:31:19;;;;;;;1.67;1.58;;;22.20;59.40;;;;;;6129860;23;20189;-87
2022/08/25 02:33:45;;;;;;;2.05;1.90;;;22.20;60.20;;;;;;6105648;23;20571;-86
2022/08/25 02:36:11;;;;;;;1.73;1.63;;;22.20;59.40;;;;;;6105133;23;20171;-87
2022/08/25 02:38:37;;;;;;;1.70;1.60;;;22.20;59.40;;;;;;6129850;23;20587;-86
2022/08/25 02:41:11;;;;;;;2.10;1.90;;;22.20;59.40;;;;;;6154042;23;20230;-87
2022/08/25 02:43:40;;;;;;;1.70;1.60;;;22.20;59.50;;;;;;6106280;23;20149;-87
2022/08/25 02:46:10;;;;;;;2.58;1.80;;;22.20;59.60;;;;;;6105376;23;20150;-86
2022/08/25 02:48:37;;;;;;;2.03;1.83;;;22.20;59.70;;;;;;6104380;23;20187;-87
2022/08/25 02:51:05;;;;;;;2.33;2.13;;;22.10;59.50;;;;;;6129681;23;20132;-86
2022/08/25 02:53:31;;;;;;;2.00;1.80;;;22.10;59.60;;;;;;6131091;23;20138;-87
2022/08/25 02:55:57;;;;;;;2.17;1.98;;;22.20;59.60;;;;;;6159229;23;20155;-87
2022/08/25 02:58:26;;;;;;;2.00;1.90;;;22.20;59.60;;;;;;6159022;23;20151;-86
2022/08/25 03:00:55;;;;;;;1.80;1.70;;;22.20;59.60;;;;;;6109809;23;20154;-86
2022/08/25 03:03:25;;;;;;;1.80;1.70;;;22.20;59.60;;;;;;6109767;23;20642;-86
2022/08/25 03:05:55;;;;;;;1.88;1.75;;;22.20;59.60;;;;;;6061318;23;20159;-86
2022/08/25 03:08:24;;;;;;;1.80;1.70;;;22.20;59.60;;;;;;6086701;23;20189;-86
2022/08/25 03:10:53;;;;;;;2.10;1.90;;;22.20;59.60;;;;;;6085992;23;20181;-86
2022/08/25 03:13:22;;;;;;;1.90;1.77;;;22.10;59.60;;;;;;6109932;23;20205;-86
2022/08/25 03:15:51;;;;;;;1.80;1.70;;;22.20;59.70;;;;;;6109332;23;20155;-86
2022/08/25 03:18:19;;;;;;;1.60;1.50;;;22.10;59.60;;;;;;6061588;23;20159;-87
2022/08/25 03:20:47;;;;;;;2.05;1.92;;;22.10;59.60;;;;;;6109700;23;20217;-86
2022/08/25 03:23:16;;;;;;;1.85;1.75;;;22.10;59.60;;;;;;6133666;23;20158;-85
2022/08/25 03:28:31;;;;;;;1.90;1.80;;;22.10;59.60;;;;;;6096892;23;20178;-86
2022/08/25 03:30:59;;;;;;;2.00;1.80;;;22.10;59.60;;;;;;6087391;23;20242;-87
2022/08/25 03:33:28;;;;;;;2.42;1.70;;;22.10;59.70;;;;;;6085725;23;20153;-86
2022/08/25 03:35:55;;;;;;;2.00;1.80;;;22.10;59.60;;;;;;6085248;23;20150;-86
2022/08/25 03:38:24;;;;;;;1.83;1.70;;;22.10;59.60;;;;;;6085290;23;20151;-87
2022/08/25 03:40:51;;;;;;;1.88;1.77;;;22.10;59.60;;;;;;6085099;23;20162;-86
2022/08/25 03:43:17;;;;;;;1.80;1.70;;;22.10;59.60;;;;;;6109343;23;20488;-86
2022/08/25 03:45:45;;;;;;;2.40;1.85;;;22.10;59.70;;;;;;6159075;23;20142;-87
2022/08/25 03:48:13;;;;;;;2.00;1.83;;;22.10;59.70;;;;;;6085478;23;20236;-87
2022/08/25 03:50:49;;;;;;;1.70;1.60;;;22.10;59.70;;;;;;6109306;23;20155;-87
2022/08/25 03:53:16;;;;;;;1.83;1.70;;;22.10;59.70;;;;;;6085651;23;20150;-86
2022/08/25 03:55:42;;;;;;;1.75;1.65;;;22.20;59.80;;;;;;6086282;23;20199;-86
2022/08/25 03:58:09;;;;;;;1.88;1.77;;;22.10;59.70;;;;;;6136549;23;20234;-86
2022/08/25 04:00:34;;;;;;;2.00;1.80;;;22.10;59.70;;;;;;6105358;23;20607;-87
2022/08/25 04:03:02;;;;;;;1.80;1.70;;;22.10;60.00;;;;;;6160966;23;20142;-87
2022/08/25 04:05:30;;;;;;;1.90;1.80;;;22.10;59.90;;;;;;6110930;23;20159;-86
2022/08/25 04:07:57;;;;;;;1.63;1.50;;;22.20;59.80;;;;;;6133508;23;20264;-87
2022/08/25 04:10:25;;;;;;;1.70;1.60;;;22.10;59.70;;;;;;6110969;23;20178;-87
2022/08/25 04:12:54;;;;;;;1.90;1.80;;;22.10;59.80;;;;;;6111121;23;20163;-87
2022/08/25 04:15:23;;;;;;;1.70;1.60;;;22.10;59.80;;;;;;6087589;23;20598;-86
2022/08/25 04:17:51;;;;;;;1.88;1.70;;;22.10;59.80;;;;;;6111932;23;20159;-86
2022/08/25 04:20:17;;;;;;;1.65;1.55;;;22.10;59.80;;;;;;6086915;23;20658;-86
2022/08/25 04:22:44;;;;;;;1.75;1.65;;;22.10;59.70;;;;;;6136492;23;20482;-86
2022/08/25 04:25:12;;;;;;;1.90;1.80;;;22.10;59.70;;;;;;6110270;23;20162;-86
2022/08/25 04:27:39;;;;;;;1.92;1.70;;;22.10;59.70;;;;;;6110813;23;20606;-86
2022/08/25 04:30:07;;;;;;;2.58;1.80;;;22.10;59.70;;;;;;6086361;23;20261;-85
2022/08/25 04:32:35;;;;;;;1.40;1.30;;;22.10;59.60;;;;;;6110461;23;20605;-86
2022/08/25 04:35:03;;;;;;;1.83;1.73;;;22.10;59.60;;;;;;6086810;23;20151;-86
2022/08/25 04:37:30;;;;;;;1.75;1.65;;;22.20;59.80;;;;;;6110599;23;20186;-87
2022/08/25 04:39:57;;;;;;;1.80;1.58;;;22.10;59.80;;;;;;6110446;23;20163;-87
2022/08/25 04:42:25;;;;;;;2.25;1.77;;;22.10;59.70;;;;;;6086217;23;20460;-86
2022/08/25 04:44:51;;;;;;;2.22;1.80;;;22.10;59.60;;;;;;6063334;23;20241;-86
2022/08/25 04:47:18;;;;;;;1.65;1.55;;;22.10;59.60;;;;;;6160259;23;20244;-87
2022/08/25 04:49:44;;;;;;;1.98;1.77;;;22.20;59.60;;;;;;6086622;23;20161;-86
2022/08/25 04:52:11;;;;;;;1.88;1.70;;;22.20;59.60;;;;;;6086440;23;20452;-87
2022/08/25 04:54:37;;;;;;;1.70;1.60;;;22.10;59.60;;;;;;6160333;23;20198;-86
2022/08/25 04:57:04;;;;;;;1.60;1.50;;;22.20;59.70;;;;;;6160502;23;20220;-86
2022/08/25 04:59:33;;;;;;;1.80;1.70;;;22.10;59.60;;;;;;6135430;23;20147;-86
2022/08/25 05:02:05;;;;;;;1.58;1.48;;;22.20;59.40;;;;;;6086251;23;20229;-87
2022/08/25 05:04:31;;;;;;;1.55;1.45;;;22.20;59.60;;;;;;6111685;23;20174;-87
2022/08/25 05:06:58;;;;;;;1.92;1.73;;;22.20;59.70;;;;;;6135365;23;20528;-87
2022/08/25 05:09:28;;;;;;;1.58;1.48;;;22.10;59.60;;;;;;6135443;23;20228;-86
2022/08/25 05:11:54;;;;;;;1.70;1.60;;;22.20;59.60;;;;;;6086557;23;20147;-86
2022/08/25 05:14:21;;;;;;;1.52;1.42;;;22.20;59.40;;;;;;6160448;23;20473;-86
2022/08/25 05:16:47;;;;;;;1.55;1.45;;;22.20;59.40;;;;;;6135773;23;20194;-87
2022/08/25 05:19:13;;;;;;;1.65;1.50;;;22.10;59.40;;;;;;6136080;23;20466;-86
2022/08/25 05:21:40;;;;;;;1.48;1.38;;;22.20;59.50;;;;;;6135630;23;20216;-87
2022/08/25 05:24:09;;;;;;;1.58;1.48;;;22.20;59.40;;;;;;6159966;23;20513;-87
2022/08/25 05:26:40;;;;;;;1.55;1.45;;;22.20;59.30;;;;;;6110492;23;20159;-87
2022/08/25 05:29:05;;;;;;;1.50;1.40;;;22.20;59.30;;;;;;6062456;23;20193;-86
2022/08/25 05:31:32;;;;;;;1.50;1.40;;;22.20;59.20;;;;;;6159904;23;20209;-87
2022/08/25 05:33:58;;;;;;;1.50;1.40;;;22.30;59.20;;;;;;6160058;23;20574;-86
2022/08/25 05:36:29;;;;;;;1.70;1.60;;;22.30;59.20;;;;;;6160451;23;20551;-86
2022/08/25 05:38:55;;;;;;;1.50;1.40;;;22.20;59.10;;;;;;6110105;23;20150;-86
2022/08/25 05:41:27;;;;;;;2.03;1.40;;;22.30;59.20;;;;;;6135093;23;20210;-86
2022/08/25 05:43:53;;;;;;;1.48;1.38;;;22.20;59.20;;;;;;6159945;23;20142;-87
2022/08/25 05:46:23;;;;;;;1.67;1.58;;;22.30;59.10;;;;;;6135113;23;20147;-86
2022/08/25 05:48:49;;;;;;;1.67;1.58;;;22.30;59.20;;;;;;6086003;23;20506;-86
2022/08/25 05:51:15;;;;;;;1.60;1.50;;;22.20;59.30;;;;;;6135239;23;20146;-86
2022/08/25 05:53:43;;;;;;;1.70;1.60;;;22.20;59.30;;;;;;6159477;23;20139;-86
2022/08/25 05:56:09;;;;;;;1.60;1.50;;;22.30;59.30;;;;;;6160411;23;20135;-86
2022/08/25 05:58:36;;;;;;;1.50;1.40;;;22.20;59.30;;;;;;6159934;23;20218;-87
2022/08/25 06:03:52;;;;;;;1.70;1.60;;;22.30;59.20;;;;;;6162391;23;20478;-86
2022/08/25 06:06:18;;;;;;;1.50;1.40;;;22.30;59.20;;;;;;6064267;23;20245;-87
2022/08/25 06:08:45;;;;;;;1.40;1.30;;;22.30;59.30;;;;;;6159366;23;20162;-87
2022/08/25 06:11:11;;;;;;;1.55;1.38;;;22.30;59.20;;;;;;6159760;23;20222;-87
2022/08/25 06:13:38;;;;;;;1.35;1.20;;;22.20;59.30;;;;;;6159410;23;20463;-86
2022/08/25 06:16:08;;;;;;;1.70;1.50;;;22.30;59.20;;;;;;6160155;23;20178;-86
2022/08/25 06:18:38;;;;;;;1.85;1.50;;;22.30;59.10;;;;;;6085485;23;20484;-87
2022/08/25 06:21:09;;;;;;;1.60;1.50;;;22.30;59.10;;;;;;6085882;23;20494;-87
2022/08/25 06:23:36;;;;;;;1.90;1.50;;;22.40;59.10;;;;;;6159772;23;20134;-86
2022/08/25 06:26:02;;;;;;;1.45;1.35;;;22.30;59.00;;;;;;6159127;23;20134;-87
2022/08/25 06:28:28;;;;;;;1.67;1.58;;;22.30;58.90;;;;;;6134321;23;20178;-87
2022/08/25 06:30:59;;;;;;;2.42;1.40;;;22.40;58.80;;;;;;6160282;23;20535;-86
2022/08/25 06:33:25;;;;;;;1.63;1.52;;;22.40;58.80;;;;;;6135227;23;20143;-87
2022/08/25 06:35:55;;;;;;;1.42;1.33;;;22.40;58.90;;;;;;6109797;23;20597;-84
2022/08/25 06:38:21;;;;;;;1.55;1.45;;;22.30;58.80;;;;;;6159409;23;20219;-85
2022/08/25 06:40:48;;;;;;;1.48;1.38;;;22.40;59.00;;;;;;6159359;23;20141;-85
2022/08/25 06:43:14;;;;;;;1.50;1.40;;;22.40;59.00;;;;;;6134433;23;20537;-84
2022/08/25 06:45:42;;;;;;;1.45;1.35;;;22.30;58.90;;;;;;6159647;23;20578;-85
2022/08/25 06:48:09;;;;;;;1.40;1.30;;;22.40;59.00;;;;;;6123896;23;20245;-85
2022/08/25 06:50:36;;;;;;;1.33;1.23;;;22.30;59.00;;;;;;6075251;23;20667;-84
2022/08/25 06:53:02;;;;;;;1.70;1.60;;;22.40;59.00;;;;;;6063987;23;20184;-84
2022/08/25 06:55:29;;;;;;;1.33;1.23;;;22.40;59.00;;;;;;6094503;23;20597;-84
2022/08/25 06:57:55;;;;;;;1.70;1.60;;;22.40;59.00;;;;;;6098394;23;20156;-83
2022/08/25 07:00:32;;;;;;;1.63;1.52;;;22.40;59.10;;;;;;6075466;23;20156;-84
2022/08/25 07:03:03;;;;;;;1.40;1.30;;;22.40;59.10;;;;;;5985258;23;20188;-83
2022/08/25 07:05:43;;;;;;;1.60;1.50;;;22.40;58.90;;;;;;5960002;23;20242;-85
2022/08/25 07:08:17;;;;;;;1.40;1.30;;;22.40;58.90;;;;;;5957951;24;20187;-83
2022/08/25 07:11:10;;;;;;;1.50;1.40;;;22.40;59.80;;;;;;5934841;24;20152;-83
2022/08/25 07:14:35;;;;;;;1.50;1.40;;;22.40;59.10;;;;;;5924087;24;20164;-84
2022/08/25 07:16:45;;;;;;;1.60;1.50;;;22.40;59.10;;;;;;5898769;24;20161;-84
2022/08/25 07:19:14;;;;;;;1.60;1.50;;;22.40;59.00;;;;;;5865306;24;20168;-83
2022/08/25 07:21:48;;;;;;;1.42;1.33;;;22.40;59.10;;;;;;5853683;24;20165;-83
2022/08/25 07:24:28;;;;;;;1.50;1.40;;;22.50;59.10;;;;;;5816763;24;20258;-83
2022/08/25 07:26:53;;;;;;;1.50;1.40;;;22.40;59.00;;;;;;5863287;24;20230;-83
2022/08/25 07:29:25;;;;;;;1.40;1.30;;;22.50;59.00;;;;;;5822412;24;20190;-83
2022/08/25 07:31:51;;;;;;;1.70;1.60;;;22.50;58.90;;;;;;5770886;24;20231;-83
2022/08/25 07:37:03;;;;;;;1.70;1.60;;;22.50;59.10;;;;;;5820123;24;20158;-82
2022/08/25 07:43:48;;;;;;;;;;;;;;;;;;;;;
2022/08/25 08:07:03;;;;;;;1.65;1.55;;;22.50;59.30;;;;;;5845957;24;20609;-81
2022/08/25 08:09:55;;;;;;;1.73;1.63;;;22.40;59.30;;;;;;5791976;24;20296;-81
2022/08/25 08:20:10;;;;;;;;;;;;;;;;;;;;;
2022/08/25 08:24:12;;;;;;;5.63;1.80;;;22.40;59.30;;;;;;5648606;25;20242;-81
2022/08/25 09:04:56;;;;;;;2.25;1.58;;;22.90;57.80;;;;;;5909446;23;20192;-82
2022/08/25 09:08:14;;;;;;;2.60;1.40;;;22.90;57.80;;;;;;6013686;23;20240;-82
2022/08/25 09:11:12;;;;;;;4.30;1.77;;;23.00;57.70;;;;;;6038032;23;20586;-83
2022/08/25 09:14:02;;;;;;;1.88;1.77;;;23.00;57.70;;;;;;6037479;23;20158;-82
2022/08/25 09:17:12;;;;;;;4.18;1.88;;;23.10;57.40;;;;;;6016218;23;20516;-82
2022/08/25 09:20:21;;;;;;;3.35;1.70;;;23.10;57.20;;;;;;5981249;24;20592;-83
2022/08/25 09:23:21;;;;;;;2.28;1.80;;;23.20;57.10;;;;;;5981461;24;20143;-83
2022/08/25 09:26:38;;;;;;;2.00;1.90;;;23.20;56.90;;;;;;5961973;24;20170;-82
2022/08/25 09:29:23;;;;;;;3.85;1.80;;;23.20;56.80;;;;;;6001732;23;20269;-82
2022/08/25 09:32:15;;;;;;;1.70;1.60;;;23.20;56.90;;;;;;5952519;24;20160;-82
2022/08/25 09:34:48;;;;;;;3.55;1.90;;;23.10;56.90;;;;;;5871401;24;20158;-82
2022/08/25 09:37:21;;;;;;;2.10;1.60;;;23.20;56.80;;;;;;5821979;24;20604;-83
2022/08/25 09:40:36;;;;;;;3.80;1.60;;;23.20;56.90;;;;;;5844190;24;20557;-83
2022/08/25 09:43:01;;;;;;;2.20;1.90;;;23.20;56.90;;;;;;5839334;24;20570;-83
2022/08/25 09:45:43;;;;;;;4.10;1.70;;;23.00;56.90;;;;;;5822923;24;20158;-82
2022/08/25 09:48:39;;;;;;;;;;;;;;;;;;;;;
2022/08/25 09:51:31;;;;;;;3.03;1.65;;;23.10;56.80;;;;;;5722078;24;20236;-83
2022/08/25 09:54:20;;;;;;;1.73;1.63;;;23.00;57.10;;;;;;5747364;24;20185;-82
2022/08/25 10:01:06;;;;;;;1.80;1.70;;;22.90;57.20;;;;;;5712548;25;20178;-82
2022/08/25 10:06:52;;;;;;;2.15;1.88;;;23.00;56.90;;;;;;5717487;25;20212;-82
2022/08/25 10:09:40;;;;;;;2.58;1.50;;;23.10;56.70;;;;;;5714916;24;20248;-82
2022/08/25 10:15:25;;;;;;;2.00;1.80;;;23.10;56.40;;;;;;5748122;24;20514;-82
2022/08/25 10:17:51;;;;;;;3.10;1.70;;;23.10;56.20;;;;;;5830567;24;20182;-82
2022/08/25 10:20:22;;;;;;;2.10;1.90;;;23.10;56.20;;;;;;5867747;24;20261;-82
2022/08/25 10:23:12;;;;;;;2.67;1.80;;;23.10;56.30;;;;;;5873885;24;20199;-82
2022/08/25 10:29:03;;;;;;;2.25;1.60;;;23.20;56.00;;;;;;5908726;24;20187;-82
2022/08/25 10:31:40;;;;;;;2.38;1.80;;;23.20;55.80;;;;;;5953039;24;20156;-83
2022/08/25 10:34:44;;;;;;;3.17;1.80;;;23.30;55.80;;;;;;5915001;24;20251;-84
2022/08/25 10:37:27;;;;;;;2.88;1.60;;;23.20;55.60;;;;;;5883247;24;20156;-82
2022/08/25 10:40:07;;;;;;;1.77;1.60;;;23.20;55.60;;;;;;5909649;23;20707;-82
2022/08/25 10:42:38;;;;;;;2.17;1.60;;;23.20;55.60;;;;;;5964735;23;20174;-84
2022/08/25 10:48:33;;;;;;;1.60;1.50;;;23.20;55.70;;;;;;5952732;24;20548;-82
2022/08/25 10:51:31;;;;;;;1.90;1.77;;;23.30;55.70;;;;;;5952719;24;20159;-84
2022/08/25 10:54:07;;;;;;;1.88;1.77;;;23.20;55.60;;;;;;5953163;24;20175;-84
2022/08/25 10:56:40;;;;;;;1.55;1.45;;;23.20;55.50;;;;;;5907428;24;20197;-84
2022/08/25 10:59:29;;;;;;;2.00;1.80;;;23.20;55.40;;;;;;5946788;24;20184;-84
2022/08/25 11:02:32;;;;;;;1.63;1.52;;;23.20;55.50;;;;;;5947836;24;20188;-83
2022/08/25 11:05:01;;;;;;;1.77;1.67;;;23.30;55.20;;;;;;5967691;23;20244;-82
2022/08/25 11:07:32;;;;;;;1.80;1.70;;;23.20;55.10;;;;;;6038534;23;20303;-84
2022/08/25 11:10:04;;;;;;;3.95;1.70;;;23.30;54.80;;;;;;6014649;23;20146;-84
2022/08/25 11:12:33;;;;;;;1.80;1.70;;;23.30;54.70;;;;;;6015625;23;20164;-84
2022/08/25 11:15:02;;;;;;;2.10;1.90;;;23.30;54.70;;;;;;6038483;23;20142;-84
2022/08/25 11:17:51;;;;;;;1.90;1.80;;;23.20;54.60;;;;;;6038443;23;20685;-84
2022/08/25 11:20:27;;;;;;;2.40;1.98;;;23.20;54.60;;;;;;6065840;23;20195;-85
2022/08/25 11:23:32;;;;;;;1.80;1.70;;;23.20;54.60;;;;;;6009854;23;20626;-84
2022/08/25 11:26:06;;;;;;;1.92;1.60;;;23.30;54.50;;;;;;5954225;24;20184;-83
2022/08/25 11:28:52;;;;;;;1.75;1.65;;;23.30;54.70;;;;;;5962009;23;20177;-84
2022/08/25 11:31:41;;;;;;;3.00;1.88;;;23.40;54.50;;;;;;5902521;24;20193;-85
2022/08/25 11:34:17;;;;;;;1.85;1.70;;;23.30;54.40;;;;;;5880634;24;20183;-84
2022/08/25 11:37:17;;;;;;;4.15;1.60;;;23.30;54.50;;;;;;5816220;24;20157;-85
2022/08/25 11:40:06;;;;;;;1.70;1.60;;;23.30;54.60;;;;;;5876564;24;20160;-84
2022/08/25 11:42:47;;;;;;;1.88;1.75;;;23.40;54.40;;;;;;5882414;24;20244;-85
2022/08/25 11:45:39;;;;;;;2.65;1.70;;;23.40;54.30;;;;;;5862086;24;20164;-85
2022/08/25 11:48:27;;;;;;;2.40;1.75;;;23.40;54.40;;;;;;5845774;24;20185;-85
2022/08/25 11:51:33;;;;;;;;;;;;;;;;;;;;;
2022/08/25 11:55:32;;;;;;;2.47;1.35;;;23.40;54.00;;;;;;5842829;24;20183;-85
2022/08/25 11:57:28;;;;;;;2.47;1.70;;;23.40;53.90;;;;;;5954556;24;20215;-84
2022/08/25 12:00:13;;;;;;;2.70;1.77;;;23.50;53.80;;;;;;5937005;24;20212;-84
2022/08/25 12:02:46;;;;;;;1.73;1.40;;;23.50;53.60;;;;;;5971231;23;20161;-85
2022/08/25 12:05:54;;;;;;;7.00;1.75;;;23.50;53.30;;;;;;5942542;23;20154;-84
2022/08/25 12:08:49;;;;;;;2.15;1.63;;;23.50;53.30;;;;;;6013759;23;20195;-84
2022/08/25 12:11:47;;;;;;;1.88;1.70;;;23.50;53.10;;;;;;6072621;23;20172;-84
2022/08/25 12:14:38;;;;;;;2.65;1.50;;;23.50;52.90;;;;;;6043544;23;20160;-85
2022/08/25 12:17:22;;;;;;;2.00;1.75;;;23.60;52.50;;;;;;6038174;23;20231;-85
2022/08/25 12:20:09;;;;;;;1.52;1.42;;;23.60;52.70;;;;;;6034820;23;20172;-85
2022/08/25 12:22:40;;;;;;;1.70;1.60;;;23.70;52.40;;;;;;6014837;23;20197;-84
2022/08/25 12:25:36;;;;;;;1.85;1.70;;;23.70;52.20;;;;;;6001269;23;20589;-84
2022/08/25 12:28:37;;;;;;;2.15;1.52;;;23.70;52.40;;;;;;6029787;23;20368;-85
2022/08/25 12:31:20;;;;;;;1.52;1.40;;;23.60;52.50;;;;;;6027877;23;20674;-84
2022/08/25 12:34:24;;;;;;;4.15;1.70;;;23.70;52.20;;;;;;6050485;23;20166;-84
2022/08/25 12:37:23;;;;;;;2.00;1.80;;;23.60;52.40;;;;;;6028568;23;20628;-84
2022/08/25 12:40:24;;;;;;;4.95;1.85;;;23.60;52.40;;;;;;6071237;23;20167;-85
2022/08/25 12:43:17;;;;;;;2.22;1.75;;;23.50;52.40;;;;;;5990584;23;20161;-86
2022/08/25 12:45:50;;;;;;;2.35;1.80;;;23.60;52.60;;;;;;5924802;24;20184;-84
2022/08/25 12:48:52;;;;;;;1.90;1.58;;;23.60;52.30;;;;;;5861199;24;20688;-85
2022/08/25 12:51:26;;;;;;;3.90;1.88;;;23.60;52.10;;;;;;5903693;24;20156;-85
2022/08/25 12:54:14;;;;;;;1.92;1.60;;;23.50;52.00;;;;;;5859907;24;20176;-86
2022/08/25 12:56:52;;;;;;;2.00;1.90;;;23.50;52.00;;;;;;5926336;24;20153;-85
2022/08/25 12:59:23;;;;;;;2.63;1.90;;;23.60;51.90;;;;;;5903554;24;20165;-84
2022/08/25 13:02:17;;;;;;;1.75;1.40;;;23.60;51.70;;;;;;5926133;24;20521;-85
2022/08/25 13:05:03;;;;;;;1.75;1.65;;;23.70;51.40;;;;;;5926009;24;20152;-85
2022/08/25 13:07:51;;;;;;;2.00;1.90;;;23.70;51.30;;;;;;5926194;24;20224;-86
2022/08/25 13:10:44;;;;;;;1.70;1.60;;;23.70;51.40;;;;;;5926609;24;20157;-86
2022/08/25 13:13:41;;;;;;;1.90;1.80;;;23.60;51.30;;;;;;5925553;24;20160;-85
2022/08/25 13:16:14;;;;;;;2.28;2.08;;;23.60;51.30;;;;;;5924826;24;20236;-83
2022/08/25 13:19:20;;;;;;;3.38;1.88;;;23.70;51.40;;;;;;5962047;23;20162;-84
2022/08/25 13:21:46;;;;;;;3.25;1.65;;;23.70;51.10;;;;;;6020731;23;20165;-84
2022/08/25 13:24:21;;;;;;;2.28;1.90;;;23.70;51.10;;;;;;6099778;23;20497;-85
2022/08/25 13:26:49;;;;;;;2.47;2.10;;;23.70;51.20;;;;;;6124325;23;20234;-84
2022/08/25 13:29:20;;;;;;;1.80;1.70;;;23.70;51.30;;;;;;6100598;23;20195;-86
2022/08/25 13:31:53;;;;;;;2.08;1.55;;;23.70;51.00;;;;;;6101204;23;20152;-86
2022/08/25 13:34:21;;;;;;;1.80;1.70;;;23.70;51.00;;;;;;6071470;23;20141;-85
2022/08/25 13:40:22;;;;;;;2.25;1.35;;;23.80;50.90;;;;;;6155299;23;20559;-84
2022/08/25 13:43:18;;;;;;;1.63;1.52;;;23.90;50.50;;;;;;6068410;23;20231;-84
2022/08/25 13:46:04;;;;;;;1.92;1.80;;;23.90;50.80;;;;;;6070481;23;20152;-83
2022/08/25 13:48:50;;;;;;;2.20;1.60;;;23.90;50.90;;;;;;6071462;23;20180;-84
2022/08/25 13:51:36;;;;;;;2.88;1.70;;;23.80;50.90;;;;;;6070912;23;20266;-83
2022/08/25 13:54:23;;;;;;;1.92;1.50;;;23.80;51.00;;;;;;6095259;23;20228;-83
2022/08/25 13:57:21;;;;;;;3.63;2.13;;;23.80;51.30;;;;;;6001792;23;20160;-85
2022/08/25 14:00:25;;;;;;;3.85;1.90;;;23.80;51.30;;;;;;6019199;23;20148;-83
2022/08/25 14:03:05;;;;;;;3.63;2.13;;;23.80;51.30;;;;;;6000323;23;20156;-82
2022/08/25 14:05:38;;;;;;;3.50;1.83;;;23.90;51.30;;;;;;5999236;23;20272;-83
2022/08/25 14:08:30;;;;;;;2.60;1.92;;;24.00;51.30;;;;;;6065876;23;20513;-84
2022/08/25 14:11:12;;;;;;;3.78;1.67;;;24.00;51.10;;;;;;6012941;23;20157;-83
2022/08/25 14:13:38;;;;;;;3.00;1.85;;;23.90;51.30;;;;;;6127660;23;20151;-84
2022/08/25 14:16:27;;;;;;;6.57;1.80;;;23.90;51.20;;;;;;6129579;23;20131;-83
2022/08/25 14:19:00;;;;;;;3.67;1.70;;;24.00;51.00;;;;;;6062707;23;20222;-82
2022/08/25 14:21:30;;;;;;;2.13;1.92;;;23.90;50.90;;;;;;6154151;23;20239;-82
2022/08/25 14:24:07;;;;;;;6.78;2.22;;;23.90;50.90;;;;;;6130371;23;20136;-83
2022/08/25 14:26:33;;;;;;;4.03;2.08;;;23.90;50.90;;;;;;6130141;23;20217;-82
2022/08/25 14:28:59;;;;;;;4.05;1.70;;;23.90;51.30;;;;;;6155657;23;20591;-81
2022/08/25 14:31:31;;;;;;;2.70;1.60;;;24.00;51.40;;;;;;6156122;23;20136;-82
2022/08/25 14:34:01;;;;;;;5.03;2.20;;;24.00;51.20;;;;;;6106126;23;20139;-81
2022/08/25 14:36:28;;;;;;;5.35;1.80;;;23.90;51.00;;;;;;6082814;23;20466;-82
2022/08/25 14:38:54;;;;;;;4.28;1.95;;;24.00;51.30;;;;;;6131356;23;20132;-82
2022/08/25 14:41:25;;;;;;;4.03;1.83;;;23.90;51.20;;;;;;6107253;23;20193;-81
2022/08/25 14:43:54;;;;;;;3.28;1.80;;;24.00;51.20;;;;;;6132893;23;20166;-81
2022/08/25 14:46:23;;;;;;;2.85;1.90;;;24.00;51.10;;;;;;6106791;23;20155;-81
2022/08/25 14:48:56;;;;;;;1.70;1.60;;;23.90;51.00;;;;;;6108947;23;20560;-81
2022/08/25 14:51:25;;;;;;;2.20;1.73;;;23.90;51.30;;;;;;6061157;23;20219;-81
2022/08/25 14:53:52;;;;;;;2.63;1.95;;;24.00;51.50;;;;;;6129433;23;20172;-81
2022/08/25 14:56:18;;;;;;;4.20;1.70;;;23.90;51.50;;;;;;6105631;23;20582;-81
2022/08/25 14:58:44;;;;;;;2.45;1.80;;;23.90;51.70;;;;;;6081557;23;20144;-81
2022/08/25 15:01:14;;;;;;;2.35;1.83;;;23.90;51.60;;;;;;6105863;23;20519;-81
2022/08/25 15:03:42;;;;;;;2.95;1.90;;;23.90;51.90;;;;;;6105286;23;20159;-81
2022/08/25 15:06:09;;;;;;;2.08;1.70;;;23.90;51.90;;;;;;6142678;23;20570;-81
2022/08/25 15:11:18;;;;;;;3.45;1.90;;;23.90;51.90;;;;;;6163475;23;20583;-81